Unicom:                    122.8

AWOS:                  118.275

Elevation           1458’ MSL

TPA:                   2500’ MSL

06/24:         5003’ L   75’ W

PAPI:       06/Left     24/Left

(Operate lights on unicom freq.)

Traffic Pattern: Left

Beacon: Sunset to Sunrise

Windsock: yes, lighted

Segmented Circle: No

 

Cleveland Center: 126.72/291.65

FSS: Altoona

[Source: ADDS]
METAR
KFKL 030338Z AUTO 29010G19KT 9SM -SN SCT022 SCT028 OVC038 M02/M05 A2989 RMK AO2 P0000 FZRANO =
KFKL 030344Z 0304/0324 31015G25KT 4SM -SHSN OVC025 TEMPO 0304/0306 1/2SM SHSN OVC015 FM031800 31015G20KT P6SM BKN035
TAF
KFKL 030344Z 0304/0324 31015G25KT 4SM -SHSN OVC025 TEMPO 0304/0306 1/2SM SHSN OVC015 FM031800 31015G20KT P6SM BKN035 =
[Source: ADDS]
METAR
KDUJ 030253Z AUTO 25015KT 10SM OVC043 M01/M09 A2984 RMK AO2 SLP124 T10111094 58009 =
KDUJ 030249Z 0303/0324 26012KT P6SM SCT035 WS002/25040KT FM030400 31015G25KT 4SM -SHSN OVC025 TEMPO 0304/0306 1/2SM SN FM031800 31015G20KT P6SM BKN035
TAF
KDUJ 030249Z 0303/0324 26012KT P6SM SCT035 WS002/25040KT FM030400 31015G25KT 4SM -SHSN OVC025 TEMPO 0304/0306 1/2SM SN FM031800 31015G20KT P6SM BKN035 =

Airport Organizations.